createdAt,value
2017-03-12T00:00:00.862Z,21.89
2017-03-12T00:01:11.629Z,21.8
2017-03-12T00:02:22.443Z,21.8
2017-03-12T00:03:33.542Z,21.8
2017-03-12T00:04:43.905Z,21.8
2017-03-12T00:05:54.651Z,21.89
2017-03-12T00:07:05.404Z,21.8
2017-03-12T00:08:14.974Z,22.08
2017-03-12T00:09:26.045Z,21.89
2017-03-12T00:10:36.390Z,21.99
2017-03-12T00:11:47.166Z,22.08
2017-03-12T00:12:57.953Z,21.8
2017-03-12T00:14:08.820Z,22.08
2017-03-12T00:15:19.825Z,22.08
2017-03-12T00:16:30.560Z,22.08
2017-03-12T00:17:40.930Z,22.08
2017-03-12T00:18:51.687Z,22.08
2017-03-12T00:20:02.133Z,22.08
2017-03-12T00:21:12.760Z,22.08
2017-03-12T00:22:23.118Z,21.99
2017-03-12T00:23:33.874Z,21.8
2017-03-12T00:24:44.616Z,21.8
2017-03-12T00:25:54.580Z,21.8
2017-03-12T00:27:05.592Z,21.89
2017-03-12T00:28:16.333Z,21.8
2017-03-12T00:29:26.674Z,21.8
2017-03-12T00:30:36.651Z,21.8
2017-03-12T00:31:47.397Z,21.89
2017-03-12T00:32:58.375Z,21.7
2017-03-12T00:34:08.741Z,21.8
2017-03-12T00:35:19.092Z,21.7
2017-03-12T00:36:29.834Z,21.7
2017-03-12T00:37:40.607Z,21.51
2017-03-12T00:38:51.692Z,21.61
2017-03-12T00:40:02.442Z,21.51
2017-03-12T00:41:13.234Z,21.61
2017-03-12T00:42:23.982Z,21.7
2017-03-12T00:43:34.743Z,21.89
2017-03-12T00:44:45.396Z,21.51
2017-03-12T00:45:56.145Z,21.61
2017-03-12T00:47:06.500Z,21.7
2017-03-12T00:48:16.843Z,21.61
2017-03-12T00:49:27.595Z,21.61
2017-03-12T00:50:38.231Z,21.7
2017-03-12T00:51:48.577Z,21.8
2017-03-12T00:52:58.935Z,21.61
2017-03-12T00:54:09.275Z,21.61
2017-03-12T00:55:19.217Z,21.61
2017-03-12T00:56:29.812Z,21.61
2017-03-12T00:57:40.167Z,21.61
2017-03-12T00:58:50.910Z,21.61
2017-03-12T01:00:01.685Z,21.61
2017-03-12T01:01:12.426Z,21.8
2017-03-12T01:02:23.582Z,21.7
2017-03-12T01:03:33.938Z,21.61
2017-03-12T01:04:44.308Z,21.8
2017-03-12T01:05:55.051Z,21.7
2017-03-12T01:07:05.393Z,21.41
2017-03-12T01:08:16.385Z,21.51
2017-03-12T01:09:27.144Z,21.61
2017-03-12T01:10:37.498Z,21.89
2017-03-12T01:11:47.467Z,21.7
2017-03-12T01:12:58.241Z,21.41
2017-03-12T01:14:09.227Z,21.61
2017-03-12T01:15:19.607Z,21.7
2017-03-12T01:16:29.581Z,21.8
2017-03-12T01:17:39.947Z,21.7
2017-03-12T01:18:49.913Z,21.7
2017-03-12T01:20:00.182Z,21.7
2017-03-12T01:21:10.961Z,21.41
2017-03-12T01:22:21.319Z,21.41
2017-03-12T01:23:31.674Z,21.61
2017-03-12T01:24:42.420Z,21.7
2017-03-12T01:25:53.031Z,21.61
2017-03-12T01:27:03.866Z,21.61
2017-03-12T01:28:14.209Z,21.61
2017-03-12T01:29:24.720Z,21.41
2017-03-12T01:30:34.663Z,21.41
2017-03-12T01:31:44.500Z,21.41
2017-03-12T01:32:54.856Z,21.32
2017-03-12T01:34:05.625Z,21.41
2017-03-12T01:35:16.391Z,21.41
2017-03-12T01:36:27.119Z,21.32
2017-03-12T01:37:37.332Z,21.32
2017-03-12T01:38:47.715Z,21.22
2017-03-12T01:39:58.068Z,21.12
2017-03-12T01:41:08.838Z,21.12
2017-03-12T01:42:19.190Z,21.22
2017-03-12T01:43:29.454Z,21.12
2017-03-12T01:44:40.206Z,21.22
2017-03-12T01:45:50.948Z,21.12
2017-03-12T01:47:01.339Z,21.22
2017-03-12T01:48:11.677Z,21.12
2017-03-12T01:49:22.664Z,21.12
2017-03-12T01:50:32.225Z,21.22
2017-03-12T01:51:42.577Z,21.12
2017-03-12T01:52:52.919Z,21.41
2017-03-12T01:54:03.336Z,21.03
2017-03-12T01:55:14.392Z,21.03
2017-03-12T01:56:25.179Z,20.94
2017-03-12T01:57:35.953Z,20.84
2017-03-12T01:58:45.502Z,20.74
2017-03-12T01:59:56.250Z,20.74
2017-03-12T02:01:07.220Z,20.84
2017-03-12T02:02:17.201Z,20.84
2017-03-12T02:03:27.556Z,20.74
2017-03-12T02:04:38.317Z,20.74
2017-03-12T02:05:49.073Z,20.84
2017-03-12T02:06:59.732Z,20.84
2017-03-12T02:08:10.485Z,20.84
2017-03-12T02:09:20.820Z,20.94
2017-03-12T02:10:30.767Z,20.84
2017-03-12T02:11:41.125Z,20.94
2017-03-12T02:12:52.113Z,20.84
2017-03-12T02:14:02.481Z,20.94
2017-03-12T02:15:13.217Z,20.84
2017-03-12T02:16:23.593Z,20.84
2017-03-12T02:17:33.576Z,20.55
2017-03-12T02:18:44.180Z,20.74
2017-03-12T02:19:54.926Z,20.84
2017-03-12T02:21:05.687Z,20.64
2017-03-12T02:22:16.439Z,21.22
2017-03-12T02:23:26.791Z,20.84
2017-03-12T02:24:37.834Z,21.22
2017-03-12T02:25:48.573Z,21.03
2017-03-12T02:26:58.935Z,21.22
2017-03-12T02:28:09.665Z,20.94
2017-03-12T02:29:20.409Z,20.94
2017-03-12T02:30:31.480Z,20.84
2017-03-12T02:31:41.826Z,21.03
2017-03-12T02:32:52.594Z,20.94
2017-03-12T02:34:02.595Z,20.92
2017-03-12T02:35:11.753Z,21.02
2017-03-12T02:36:22.773Z,20.94
2017-03-12T02:37:33.502Z,20.84
2017-03-12T02:38:43.434Z,20.94
2017-03-12T02:39:53.377Z,20.84
2017-03-12T02:41:03.728Z,20.45
2017-03-12T02:42:14.792Z,20.74
2017-03-12T02:43:25.140Z,20.55
2017-03-12T02:44:35.099Z,20.54
2017-03-12T02:45:45.440Z,20.45
2017-03-12T02:46:56.179Z,20.64
2017-03-12T02:48:06.398Z,20.73
2017-03-12T02:49:16.756Z,20.64
2017-03-12T02:50:27.111Z,20.74
2017-03-12T02:51:37.838Z,20.84
2017-03-12T02:52:48.193Z,20.64
2017-03-12T02:53:59.246Z,20.55
2017-03-12T02:55:09.598Z,20.64
2017-03-12T02:56:20.359Z,20.64
2017-03-12T02:57:29.927Z,20.73
2017-03-12T02:58:40.295Z,20.55
2017-03-12T02:59:50.554Z,20.45
2017-03-12T03:01:01.316Z,20.73
2017-03-12T03:02:11.694Z,20.73
2017-03-12T03:03:22.075Z,20.54
2017-03-12T03:04:32.808Z,20.54
2017-03-12T03:05:43.847Z,20.64
2017-03-12T03:06:54.215Z,20.64
2017-03-12T03:08:03.770Z,20.64
2017-03-12T03:09:13.335Z,20.55
2017-03-12T03:10:24.110Z,20.73
2017-03-12T03:11:34.372Z,20.15
2017-03-12T03:12:44.715Z,20.25
2017-03-12T03:13:55.070Z,20.54
2017-03-12T03:15:05.040Z,20.44
2017-03-12T03:16:15.377Z,20.54
2017-03-12T03:17:26.020Z,20.15
2017-03-12T03:18:35.966Z,20.35
2017-03-12T03:19:46.721Z,20.35
2017-03-12T03:20:57.479Z,20.25
2017-03-12T03:22:07.443Z,20.25
2017-03-12T03:23:17.709Z,20.36
2017-03-12T03:24:28.453Z,20.25
2017-03-12T03:25:38.819Z,20.15
2017-03-12T03:26:49.566Z,20.25
2017-03-12T03:27:59.569Z,20.35
2017-03-12T03:29:10.619Z,20.15
2017-03-12T03:30:21.376Z,20.35
2017-03-12T03:31:31.735Z,20.35
2017-03-12T03:32:41.707Z,20.35
2017-03-12T03:33:52.461Z,20.25
2017-03-12T03:35:02.730Z,20.35
2017-03-12T03:36:13.089Z,20.35
2017-03-12T03:37:23.435Z,20.25
2017-03-12T03:38:33.399Z,20.25
2017-03-12T03:39:43.757Z,20.44
2017-03-12T03:40:54.029Z,20.35
2017-03-12T03:42:03.988Z,20.44
2017-03-12T03:43:14.346Z,20.35
2017-03-12T03:44:25.108Z,20.54
2017-03-12T03:45:35.457Z,20.25
2017-03-12T03:46:46.487Z,20.35
2017-03-12T03:47:57.236Z,20.35
2017-03-12T03:49:07.570Z,20.54
2017-03-12T03:50:18.314Z,20.35
2017-03-12T03:51:28.274Z,20.35
2017-03-12T03:52:38.529Z,20.15
2017-03-12T03:53:49.278Z,20.35
2017-03-12T03:54:59.613Z,20.25
2017-03-12T03:56:09.943Z,20.25
2017-03-12T03:57:20.679Z,20.44
2017-03-12T03:58:31.293Z,20.25
2017-03-12T03:59:42.020Z,20.15
2017-03-12T04:00:52.366Z,20.35
2017-03-12T04:02:03.102Z,20.15
2017-03-12T04:03:13.447Z,20.25
2017-03-12T04:04:23.649Z,20.35
2017-03-12T04:05:33.988Z,20.35
2017-03-12T04:06:44.344Z,20.25
2017-03-12T04:07:55.069Z,20.25
2017-03-12T04:09:05.414Z,20.25
2017-03-12T04:10:16.019Z,20.15
2017-03-12T04:11:26.785Z,20.25
2017-03-12T04:12:37.537Z,20.15
2017-03-12T04:13:48.283Z,20.06
2017-03-12T04:14:58.262Z,19.96
2017-03-12T04:16:09.268Z,19.96
2017-03-12T04:17:20.019Z,20.15
2017-03-12T04:18:30.369Z,19.96
2017-03-12T04:19:40.324Z,19.87
2017-03-12T04:20:51.101Z,20.06
2017-03-12T04:22:02.113Z,20.15
2017-03-12T04:23:11.706Z,20.06
2017-03-12T04:24:22.059Z,20.15
2017-03-12T04:25:32.833Z,20.15
2017-03-12T04:26:43.576Z,20.06
2017-03-12T04:27:54.639Z,19.67
2017-03-12T04:29:04.989Z,19.96
2017-03-12T04:30:15.354Z,19.67
2017-03-12T04:31:26.112Z,19.77
2017-03-12T04:32:36.092Z,19.67
2017-03-12T04:33:47.140Z,19.87
2017-03-12T04:34:57.492Z,19.96
2017-03-12T04:36:07.436Z,19.67
2017-03-12T04:37:18.186Z,19.77
2017-03-12T04:38:28.966Z,19.87
2017-03-12T04:39:39.223Z,19.67
2017-03-12T04:40:49.623Z,19.67
2017-03-12T04:41:59.592Z,19.96
2017-03-12T04:43:10.336Z,19.77
2017-03-12T04:44:20.680Z,19.87
2017-03-12T04:45:31.299Z,19.77
2017-03-12T04:46:41.659Z,19.48
2017-03-12T04:47:52.410Z,19.58
2017-03-12T04:49:03.006Z,19.58
2017-03-12T04:50:13.350Z,19.58
2017-03-12T04:51:23.991Z,19.87
2017-03-12T04:52:34.343Z,19.48
2017-03-12T04:53:45.100Z,19.58
2017-03-12T04:54:55.460Z,19.87
2017-03-12T04:56:05.831Z,19.58
2017-03-12T04:57:16.836Z,19.58
2017-03-12T04:58:27.219Z,19.58
2017-03-12T04:59:37.563Z,19.48
2017-03-12T05:00:47.126Z,19.58
2017-03-12T05:01:57.472Z,19.67
2017-03-12T05:03:08.102Z,19.77
2017-03-12T05:04:18.459Z,19.67
2017-03-12T05:05:29.201Z,19.77
2017-03-12T05:06:39.549Z,19.67
2017-03-12T05:07:49.901Z,19.67
2017-03-12T05:09:00.522Z,19.58
2017-03-12T05:10:10.871Z,19.87
2017-03-12T05:11:21.600Z,19.48
2017-03-12T05:12:32.334Z,19.58
2017-03-12T05:13:43.079Z,19.58
2017-03-12T05:14:52.487Z,19.77
2017-03-12T05:16:02.073Z,19.77
2017-03-12T05:17:12.410Z,19.77
2017-03-12T05:18:22.388Z,19.58
2017-03-12T05:19:32.745Z,19.58
2017-03-12T05:20:43.350Z,19.77
2017-03-12T05:21:53.306Z,19.67
2017-03-12T05:23:03.654Z,19.58
2017-03-12T05:24:13.996Z,19.58
2017-03-12T05:25:24.759Z,19.58
2017-03-12T05:26:35.354Z,19.67
2017-03-12T05:27:46.093Z,19.87
2017-03-12T05:28:56.051Z,19.58
2017-03-12T05:30:06.800Z,19.58
2017-03-12T05:31:17.162Z,19.58
2017-03-12T05:32:27.767Z,19.58
2017-03-12T05:33:38.506Z,19.87
2017-03-12T05:34:48.480Z,19.87
2017-03-12T05:35:58.034Z,19.67
2017-03-12T05:37:08.404Z,19.58
2017-03-12T05:38:19.401Z,19.58
2017-03-12T05:39:29.744Z,19.67
2017-03-12T05:40:39.702Z,19.67
2017-03-12T05:41:50.038Z,19.58
2017-03-12T05:43:00.370Z,19.87
2017-03-12T05:44:11.031Z,19.58
2017-03-12T05:45:21.814Z,19.48
2017-03-12T05:46:32.579Z,19.87
2017-03-12T05:47:42.556Z,19.77
2017-03-12T05:48:52.937Z,19.67
2017-03-12T05:50:07.901Z,19.58
2017-03-12T05:51:18.640Z,19.58
2017-03-12T05:52:28.621Z,19.87
2017-03-12T05:53:39.389Z,19.67
2017-03-12T05:54:50.148Z,19.77
2017-03-12T05:56:00.738Z,19.67
2017-03-12T05:57:11.075Z,19.67
2017-03-12T05:58:20.631Z,19.67
2017-03-12T05:59:30.585Z,19.58
2017-03-12T06:00:41.341Z,19.67
2017-03-12T06:01:52.330Z,19.67
2017-03-12T06:03:01.901Z,19.58
2017-03-12T06:04:11.866Z,19.77
2017-03-12T06:05:21.811Z,19.67
2017-03-12T06:06:32.150Z,19.58
2017-03-12T06:07:42.793Z,19.67
2017-03-12T06:08:53.143Z,19.67
2017-03-12T06:10:03.892Z,19.67
2017-03-12T06:11:13.863Z,19.77
2017-03-12T06:12:24.605Z,19.58
2017-03-12T06:13:35.616Z,19.67
2017-03-12T06:14:46.002Z,19.67
2017-03-12T06:15:55.587Z,19.77
2017-03-12T06:17:06.358Z,19.48
2017-03-12T06:18:17.102Z,19.58
2017-03-12T06:19:27.696Z,19.58
2017-03-12T06:20:38.484Z,19.58
2017-03-12T06:21:48.835Z,19.48
2017-03-12T06:22:59.594Z,19.38
2017-03-12T06:24:09.932Z,19.58
2017-03-12T06:25:20.931Z,19.67
2017-03-12T06:26:30.129Z,19.38
2017-03-12T06:27:40.483Z,19.48
2017-03-12T06:28:50.829Z,19.58
2017-03-12T06:30:01.169Z,19.48
2017-03-12T06:31:11.783Z,19.58
2017-03-12T06:32:21.742Z,19.58
2017-03-12T06:33:32.518Z,19.38
2017-03-12T06:34:42.870Z,19.67
2017-03-12T06:35:53.631Z,19.38
2017-03-12T06:37:04.233Z,19.58
2017-03-12T06:38:14.989Z,19.48
2017-03-12T06:39:25.760Z,19.38
2017-03-12T06:40:36.487Z,19.29
2017-03-12T06:41:46.855Z,19.38
2017-03-12T06:42:57.865Z,19.48
2017-03-12T06:44:08.213Z,19.38
2017-03-12T06:45:18.556Z,19.38
2017-03-12T06:46:28.515Z,19.2
2017-03-12T06:47:38.880Z,19.2
2017-03-12T06:48:49.597Z,19.2
2017-03-12T06:50:00.361Z,19.29
2017-03-12T06:51:10.320Z,19.1
2017-03-12T06:52:20.708Z,19.1
2017-03-12T06:53:31.081Z,19.58
2017-03-12T06:54:42.079Z,19.2
2017-03-12T06:55:52.463Z,19.2
2017-03-12T06:57:02.816Z,19.1
2017-03-12T06:58:13.590Z,19.11
2017-03-12T06:59:23.171Z,19.2
2017-03-12T07:00:34.179Z,19.2
2017-03-12T07:01:44.522Z,19.2
2017-03-12T07:02:55.302Z,19.59
2017-03-12T07:04:04.877Z,19.49
2017-03-12T07:05:15.251Z,19
2017-03-12T07:06:25.850Z,19.4
2017-03-12T07:07:36.608Z,19.4
2017-03-12T07:08:46.995Z,19.49
2017-03-12T07:09:57.747Z,19.49
2017-03-12T07:11:08.086Z,19.38
2017-03-12T07:12:19.088Z,19.01
2017-03-12T07:13:28.663Z,19.49
2017-03-12T07:14:38.611Z,19.01
2017-03-12T07:15:48.960Z,19.2
2017-03-12T07:16:59.741Z,19.11
2017-03-12T07:18:10.893Z,19.2
2017-03-12T07:19:21.258Z,19.4
2017-03-12T07:20:32.001Z,19.11
2017-03-12T07:21:42.346Z,19.2
2017-03-12T07:22:53.110Z,19.4
2017-03-12T07:24:04.099Z,18.91
2017-03-12T07:25:14.458Z,18.91
2017-03-12T07:26:24.851Z,19.01
2017-03-12T07:27:35.623Z,19.2
2017-03-12T07:28:46.370Z,19.11
2017-03-12T07:29:57.344Z,19.3
2017-03-12T07:31:08.097Z,19.2
2017-03-12T07:32:18.842Z,19.3
2017-03-12T07:33:29.583Z,19.2
2017-03-12T07:34:39.574Z,19.11
2017-03-12T07:35:50.588Z,19.2
2017-03-12T07:37:01.354Z,19.3
2017-03-12T07:38:12.104Z,19.2
2017-03-12T07:39:22.841Z,19.2
2017-03-12T07:40:33.197Z,19.11
2017-03-12T07:41:44.224Z,19.2
2017-03-12T07:42:54.996Z,19.01
2017-03-12T07:44:05.730Z,19.11
2017-03-12T07:45:15.683Z,19.11
2017-03-12T07:46:25.645Z,19.11
2017-03-12T07:47:36.651Z,18.91
2017-03-12T07:48:47.698Z,19.3
2017-03-12T07:49:58.496Z,19.2
2017-03-12T07:51:09.094Z,19.01
2017-03-12T07:52:19.856Z,19.4
2017-03-12T07:53:30.496Z,19.11
2017-03-12T07:54:40.886Z,19.11
2017-03-12T07:55:50.464Z,19.11
2017-03-12T07:57:01.197Z,19.2
2017-03-12T07:58:11.949Z,19.2
2017-03-12T07:59:22.965Z,19.11
2017-03-12T08:00:32.937Z,19.11
2017-03-12T08:01:43.704Z,19.2
2017-03-12T08:02:54.476Z,19.2
2017-03-12T08:04:04.838Z,19.2
2017-03-12T08:05:15.447Z,19.3
2017-03-12T08:06:25.830Z,19.49
2017-03-12T08:07:36.173Z,19.2
2017-03-12T08:08:46.939Z,19.4
2017-03-12T08:09:57.718Z,19.4
2017-03-12T08:11:08.700Z,19.49
2017-03-12T08:12:19.446Z,19.4
2017-03-12T08:13:29.830Z,19.49
2017-03-12T08:14:39.803Z,19.49
2017-03-12T08:15:50.546Z,19.3
2017-03-12T08:17:01.136Z,19.49
2017-03-12T08:18:11.511Z,19.67
2017-03-12T08:19:22.281Z,19.78
2017-03-12T08:20:33.059Z,19.59
2017-03-12T08:21:43.853Z,19.58
2017-03-12T08:22:54.851Z,19.58
2017-03-12T08:24:05.620Z,19.4
2017-03-12T08:25:15.957Z,19.4
2017-03-12T08:26:25.938Z,19.48
2017-03-12T08:27:36.288Z,19.48
2017-03-12T08:28:46.903Z,19.4
2017-03-12T08:29:57.248Z,19.58
2017-03-12T08:31:07.597Z,19.77
2017-03-12T08:32:17.942Z,19.67
2017-03-12T08:33:28.308Z,19.67
2017-03-12T08:34:39.290Z,19.58
2017-03-12T08:35:50.058Z,19.77
2017-03-12T08:37:00.422Z,19.67
2017-03-12T08:38:10.803Z,19.67
2017-03-12T08:39:21.539Z,19.77
2017-03-12T08:40:32.553Z,19.58
2017-03-12T08:41:43.335Z,19.67
2017-03-12T08:42:53.686Z,19.67
2017-03-12T08:44:04.072Z,19.58
2017-03-12T08:45:14.825Z,19.68
2017-03-12T08:46:25.816Z,19.58
2017-03-12T08:47:36.570Z,19.77
2017-03-12T08:48:47.303Z,19.58
2017-03-12T08:49:58.062Z,19.77
2017-03-12T08:51:08.407Z,19.77
2017-03-12T08:52:19.417Z,19.88
2017-03-12T08:53:29.772Z,19.67
2017-03-12T08:54:40.537Z,19.77
2017-03-12T08:55:51.323Z,19.58
2017-03-12T08:57:02.070Z,19.58
2017-03-12T08:58:13.142Z,19.67
2017-03-12T08:59:23.919Z,19.67
2017-03-12T09:00:34.275Z,19.87
2017-03-12T09:01:45.033Z,19.87
2017-03-12T09:02:55.411Z,19.67
2017-03-12T09:04:06.411Z,19.77
2017-03-12T09:05:17.177Z,19.58
2017-03-12T09:06:27.549Z,19.58
2017-03-12T09:07:38.303Z,19.48
2017-03-12T09:08:48.652Z,19.58
2017-03-12T09:09:59.657Z,19.38
2017-03-12T09:11:10.041Z,19.58
2017-03-12T09:12:20.790Z,19.87
2017-03-12T09:13:31.136Z,19.58
2017-03-12T09:14:41.899Z,19.67
2017-03-12T09:15:52.934Z,19.77
2017-03-12T09:17:03.277Z,19.87
2017-03-12T09:18:14.045Z,19.77
2017-03-12T09:19:24.809Z,19.96
2017-03-12T09:20:35.185Z,19.77
2017-03-12T09:21:46.192Z,19.67
2017-03-12T09:22:56.986Z,19.87
2017-03-12T09:24:07.801Z,19.96
2017-03-12T09:25:18.554Z,19.77
2017-03-12T09:26:29.321Z,19.96
2017-03-12T09:27:40.345Z,19.87
2017-03-12T09:28:51.119Z,19.68
2017-03-12T09:30:01.874Z,19.77
2017-03-12T09:31:12.258Z,19.87
2017-03-12T09:32:23.039Z,19.58
2017-03-12T09:33:34.051Z,19.96
2017-03-12T09:34:44.854Z,19.96
2017-03-12T09:35:55.222Z,19.67
2017-03-12T09:37:05.609Z,19.67
2017-03-12T09:38:16.411Z,19.58
2017-03-12T09:39:27.427Z,20.06
2017-03-12T09:40:37.800Z,19.96
2017-03-12T09:41:48.143Z,20.15
2017-03-12T09:42:58.931Z,20.06
2017-03-12T09:44:09.666Z,20.17
2017-03-12T09:45:20.680Z,19.96
2017-03-12T09:46:31.447Z,20.06
2017-03-12T09:47:42.218Z,20.07
2017-03-12T09:48:52.560Z,20.15
2017-03-12T09:50:02.932Z,20.15
2017-03-12T09:51:13.559Z,19.96
2017-03-12T09:52:23.543Z,20.15
2017-03-12T09:53:33.914Z,20.25
2017-03-12T09:54:44.304Z,20.25
2017-03-12T09:55:55.061Z,20.35
2017-03-12T09:57:06.093Z,20.15
2017-03-12T09:58:16.881Z,20.36
2017-03-12T09:59:27.658Z,20.15
2017-03-12T10:00:38.423Z,20.15
2017-03-12T10:01:49.184Z,20.15
2017-03-12T10:03:00.176Z,20.45
2017-03-12T10:04:10.936Z,20.35
2017-03-12T10:05:21.687Z,20.35
2017-03-12T10:06:32.003Z,20.35
2017-03-12T10:07:41.576Z,20.25
2017-03-12T10:08:51.807Z,20.44
2017-03-12T10:10:02.597Z,20.25
2017-03-12T10:11:13.355Z,20.25
2017-03-12T10:12:23.746Z,20.54
2017-03-12T10:13:34.136Z,20.26
2017-03-12T10:14:45.144Z,20.35
2017-03-12T10:15:55.487Z,20.35
2017-03-12T10:17:05.813Z,20.54
2017-03-12T10:18:16.153Z,20.35
2017-03-12T10:19:26.477Z,20.55
2017-03-12T10:20:37.480Z,20.44
2017-03-12T10:21:47.813Z,20.44
2017-03-12T10:22:58.173Z,20.54
2017-03-12T10:24:08.891Z,20.44
2017-03-12T10:25:19.239Z,20.35
2017-03-12T10:26:29.819Z,20.35
2017-03-12T10:27:39.779Z,20.36
2017-03-12T10:28:49.737Z,20.36
2017-03-12T10:29:59.679Z,20.25
2017-03-12T10:31:10.012Z,20.35
2017-03-12T10:32:20.210Z,20.36
2017-03-12T10:33:30.549Z,20.25
2017-03-12T10:34:41.334Z,20.35
2017-03-12T10:35:52.057Z,20.25
2017-03-12T10:37:02.385Z,20.36
2017-03-12T10:38:13.057Z,20.25
2017-03-12T10:39:23.791Z,20.36
2017-03-12T10:40:34.534Z,20.25
2017-03-12T10:41:44.856Z,20.25
2017-03-12T10:42:55.583Z,20.35
2017-03-12T10:44:05.364Z,20.36
2017-03-12T10:45:15.723Z,20.26
2017-03-12T10:46:26.441Z,20.35
2017-03-12T10:47:36.791Z,20.15
2017-03-12T10:48:46.723Z,20.25
2017-03-12T10:49:57.765Z,20.35
2017-03-12T10:51:07.695Z,20.36
2017-03-12T10:52:17.651Z,20.26
2017-03-12T10:53:27.602Z,20.36
2017-03-12T10:54:37.540Z,20.26
2017-03-12T10:55:48.129Z,20.17
2017-03-12T10:56:58.460Z,20.17
2017-03-12T10:58:09.220Z,20.17
2017-03-12T10:59:19.990Z,20.26
2017-03-12T11:00:30.738Z,20.15
2017-03-12T11:01:41.338Z,20.26
2017-03-12T11:02:51.689Z,20.17
2017-03-12T11:04:02.422Z,20.26
2017-03-12T11:05:13.190Z,20.15
2017-03-12T11:06:23.954Z,20.36
2017-03-12T11:07:35.010Z,20.26
2017-03-12T11:08:45.757Z,20.36
2017-03-12T11:09:56.531Z,20.36
2017-03-12T11:11:07.318Z,20.55
2017-03-12T11:12:17.297Z,20.17
2017-03-12T11:13:28.438Z,20.54
2017-03-12T11:14:39.188Z,20.17
2017-03-12T11:15:49.915Z,20.07
2017-03-12T11:17:00.684Z,20.45
2017-03-12T11:18:11.050Z,20.26
2017-03-12T11:19:21.256Z,20.17
2017-03-12T11:20:30.797Z,20.26
2017-03-12T11:21:41.551Z,20.26
2017-03-12T11:22:52.309Z,20.17
2017-03-12T11:24:03.050Z,20.17
2017-03-12T11:25:14.080Z,20.64
2017-03-12T11:26:24.435Z,20.45
2017-03-12T11:27:35.188Z,20.45
2017-03-12T11:28:45.966Z,20.64
2017-03-12T11:29:56.924Z,20.55
2017-03-12T11:31:08.013Z,20.64
2017-03-12T11:32:18.788Z,20.64
2017-03-12T11:33:29.165Z,20.64
2017-03-12T11:34:39.966Z,20.64
2017-03-12T11:35:50.331Z,20.55
2017-03-12T11:37:01.352Z,20.64
2017-03-12T11:38:11.724Z,20.55
2017-03-12T11:39:22.497Z,20.64
2017-03-12T11:40:33.255Z,20.64
2017-03-12T11:41:44.045Z,20.55
2017-03-12T11:42:55.060Z,20.45
2017-03-12T11:44:05.847Z,20.55
2017-03-12T11:45:16.649Z,20.45
2017-03-12T11:46:27.053Z,20.74
2017-03-12T11:47:37.829Z,20.64
2017-03-12T11:48:48.928Z,20.64
2017-03-12T11:49:59.684Z,20.45
2017-03-12T11:51:10.433Z,20.55
2017-03-12T11:52:21.219Z,20.64
2017-03-12T11:53:31.571Z,20.64
2017-03-12T11:54:42.228Z,20.64
2017-03-12T11:55:53.022Z,20.55
2017-03-12T11:57:03.781Z,20.74
2017-03-12T11:58:14.532Z,20.64
2017-03-12T11:59:25.325Z,20.64
2017-03-12T12:00:36.340Z,20.55
2017-03-12T12:01:47.161Z,20.55
2017-03-12T12:02:57.995Z,20.64
2017-03-12T12:04:08.787Z,20.64
2017-03-12T12:05:19.569Z,20.64
2017-03-12T12:06:30.580Z,20.64
2017-03-12T12:07:41.356Z,20.64
2017-03-12T12:08:52.135Z,20.55
2017-03-12T12:10:02.888Z,20.45
2017-03-12T12:11:13.678Z,20.55
2017-03-12T12:12:24.688Z,20.64
2017-03-12T12:13:35.469Z,20.64
2017-03-12T12:14:45.829Z,20.64
2017-03-12T12:15:56.591Z,20.64
2017-03-12T12:17:07.358Z,20.74
2017-03-12T12:18:17.979Z,20.64
2017-03-12T12:19:27.972Z,20.64
2017-03-12T12:20:37.947Z,20.45
2017-03-12T12:21:48.337Z,20.55
2017-03-12T12:22:59.109Z,20.45
2017-03-12T12:24:09.324Z,20.36
2017-03-12T12:25:20.107Z,20.64
2017-03-12T12:26:30.518Z,20.64
2017-03-12T12:27:41.295Z,20.64
2017-03-12T12:28:52.056Z,20.64
2017-03-12T12:30:03.135Z,20.74
2017-03-12T12:31:13.901Z,20.64
2017-03-12T12:32:24.666Z,20.45
2017-03-12T12:33:35.037Z,20.74
2017-03-12T12:34:45.759Z,20.64
2017-03-12T12:35:56.396Z,20.64
2017-03-12T12:37:06.738Z,20.45
2017-03-12T12:38:16.676Z,20.45
2017-03-12T12:39:27.009Z,20.45
2017-03-12T12:40:36.944Z,20.17
2017-03-12T12:41:47.191Z,20.55
2017-03-12T12:42:57.939Z,20.64
2017-03-12T12:44:07.880Z,20.64
2017-03-12T12:45:17.813Z,20.55
2017-03-12T12:46:27.356Z,20.64
2017-03-12T12:47:37.548Z,20.64
2017-03-12T12:48:48.290Z,20.55
2017-03-12T12:49:58.610Z,20.64
2017-03-12T12:51:08.581Z,20.64
2017-03-12T12:52:18.927Z,20.55
2017-03-12T12:53:29.123Z,20.45
2017-03-12T12:54:39.913Z,20.55
2017-03-12T12:55:49.855Z,20.74
2017-03-12T12:56:59.806Z,20.55
2017-03-12T12:58:10.165Z,20.45
2017-03-12T12:59:20.358Z,20.64
2017-03-12T13:00:30.693Z,20.15
2017-03-12T13:01:41.416Z,20.55
2017-03-12T13:02:51.367Z,20.17
2017-03-12T13:04:01.692Z,20.17
2017-03-12T13:05:11.941Z,20.17
2017-03-12T13:06:21.895Z,20.07
2017-03-12T13:07:32.636Z,20.17
2017-03-12T13:08:42.991Z,20.36
2017-03-12T13:09:53.404Z,20.45
2017-03-12T13:11:07.973Z,20.55
2017-03-12T13:12:18.325Z,20.64
2017-03-12T13:13:28.662Z,20.55
2017-03-12T13:14:39.019Z,20.45
2017-03-12T13:15:49.753Z,20.45
2017-03-12T13:17:00.421Z,20.45
2017-03-12T13:18:11.160Z,20.45
2017-03-12T13:19:21.906Z,20.45
2017-03-12T13:20:31.865Z,20.64
2017-03-12T13:21:42.201Z,20.45
2017-03-12T13:22:52.889Z,20.26
2017-03-12T13:24:03.212Z,20.07
2017-03-12T13:25:13.947Z,20.17
2017-03-12T13:26:24.695Z,20.07
2017-03-12T13:27:35.426Z,20.45
2017-03-12T13:28:46.007Z,20.64
2017-03-12T13:29:55.950Z,20.64
2017-03-12T13:31:05.494Z,20.74
2017-03-12T13:32:16.223Z,20.45
2017-03-12T13:33:26.565Z,20.64
2017-03-12T13:34:37.151Z,20.64
2017-03-12T13:35:47.895Z,20.45
2017-03-12T13:36:58.251Z,20.45
2017-03-12T13:38:09.003Z,20.44
2017-03-12T13:39:18.971Z,20.55
2017-03-12T13:40:29.564Z,20.36
2017-03-12T13:41:39.114Z,20.55
2017-03-12T13:42:49.854Z,20.45
2017-03-12T13:44:00.604Z,20.64
2017-03-12T13:45:10.551Z,20.64
2017-03-12T13:46:21.186Z,20.64
2017-03-12T13:47:31.543Z,20.55
2017-03-12T13:48:42.253Z,20.74
2017-03-12T13:49:52.595Z,20.64
2017-03-12T13:51:02.922Z,20.45
2017-03-12T13:52:13.164Z,20.55
2017-03-12T13:53:23.520Z,20.55
2017-03-12T13:54:33.868Z,20.55
2017-03-12T13:55:44.612Z,20.55
2017-03-12T13:56:55.389Z,20.74
2017-03-12T13:58:05.595Z,20.74
2017-03-12T13:59:15.954Z,20.55
2017-03-12T14:00:26.737Z,20.64
2017-03-12T14:01:37.081Z,20.55
2017-03-12T14:02:47.821Z,20.55
2017-03-12T14:03:58.018Z,20.74
2017-03-12T14:05:07.946Z,20.55
2017-03-12T14:06:18.284Z,20.84
2017-03-12T14:07:29.002Z,20.45
2017-03-12T14:08:38.942Z,20.64
2017-03-12T14:09:48.796Z,20.64
2017-03-12T14:10:59.527Z,20.64
2017-03-12T14:12:09.876Z,20.64
2017-03-12T14:13:19.826Z,20.64
2017-03-12T14:14:30.183Z,20.64
2017-03-12T14:15:40.822Z,20.64
2017-03-12T14:16:51.596Z,20.64
2017-03-12T14:18:01.966Z,20.64
2017-03-12T14:19:12.723Z,20.64
2017-03-12T14:20:22.675Z,20.64
2017-03-12T14:21:38.141Z,20.64
2017-03-12T14:22:47.685Z,20.55
2017-03-12T14:23:57.639Z,20.45
2017-03-12T14:25:07.973Z,20.64
2017-03-12T14:26:18.714Z,20.74
2017-03-12T14:27:28.160Z,20.64
2017-03-12T14:28:38.090Z,20.55
2017-03-12T14:29:48.441Z,20.64
2017-03-12T14:30:58.839Z,20.55
2017-03-12T14:32:09.193Z,20.55
2017-03-12T14:33:19.777Z,20.55
2017-03-12T14:34:29.853Z,20.54
2017-03-12T14:35:40.591Z,20.64
2017-03-12T14:36:50.155Z,20.64
2017-03-12T14:38:00.489Z,20.55
2017-03-12T14:39:11.087Z,20.64
2017-03-12T14:40:20.665Z,20.55
2017-03-12T14:41:30.619Z,20.54
2017-03-12T14:42:40.982Z,20.45
2017-03-12T14:43:51.325Z,20.55
2017-03-12T14:45:02.009Z,20.74
2017-03-12T14:46:11.605Z,20.54
2017-03-12T14:47:21.975Z,20.54
2017-03-12T14:48:31.118Z,20.64
2017-03-12T14:49:40.284Z,20.64
2017-03-12T14:50:50.938Z,20.64
2017-03-12T14:52:01.278Z,20.64
2017-03-12T14:53:11.619Z,20.64
2017-03-12T14:54:22.365Z,20.64
2017-03-12T14:55:32.704Z,20.45
2017-03-12T14:56:43.303Z,20.64
2017-03-12T14:57:54.044Z,20.74
2017-03-12T14:59:04.423Z,20.55
2017-03-12T15:00:14.351Z,20.55
2017-03-12T15:01:24.289Z,20.64
2017-03-12T15:02:34.486Z,20.55
2017-03-12T15:03:44.863Z,20.64
2017-03-12T15:04:55.206Z,20.64
2017-03-12T15:06:05.960Z,20.55
2017-03-12T15:07:16.736Z,20.55
2017-03-12T15:08:26.573Z,20.64
2017-03-12T15:09:37.304Z,20.64
2017-03-12T15:10:47.274Z,20.64